Terminal Aerodrome Forecast
Issued by NWS

Home | Current Version | Previous Version | Graphics & Text | Print | Product List | Glossary On
Versions: 1 2 3 4 5 6 7 8 9 10 11 12 13 14 15
000
FTUS43 KOAX 160500 RRA
TAFCDR
TAF
KCDR 160551Z 1606/1706 28008KT P6SM BKN080
     FM160800 31028G38KT 4SM -RASN BKN015 OVC025
     FM161000 31012KT P6SM SCT060
     FM161500 31018G28KT P6SM BKN060
     FM170200 VRB05KT P6SM BKN060=

USA.gov is the U.S. government's official web portal to all federal, state and local government web resources and services.